Time;durP1;ratioP1;P1;durP2;ratioP2;P2;SDS_P1;SDS_P2;PMS_P1;PMS_P2;Temp;Humidity;BMP_temperature;BMP_pressure;BME280_temperature;BME280_humidity;BME280_pressure;Samples;Min_cycle;Max_cycle;Signal;HPM_P1;HPM_P2
2022/12/28 00:01:33;;;;;;;12.13;6.10;;;;;;;4.50;100.00;101621.16;4957647;29;20480;-83
2022/12/28 00:04:00;;;;;;;12.02;4.78;;;;;;;4.66;100.00;101629.28;4957534;29;20166;-82
2022/12/28 00:06:26;;;;;;;11.00;5.07;;;;;;;4.76;100.00;101638.41;4957594;29;20069;-81
2022/12/28 00:08:53;;;;;;;13.43;5.20;;;;;;;4.71;100.00;101617.22;4957237;29;20044;-82
2022/12/28 00:11:20;;;;;;;9.38;4.57;;;;;;;4.78;100.00;101618.72;4957283;29;20031;-82
2022/12/28 00:13:45;;;;;;;8.20;5.07;;;;;;;4.88;100.00;101625.28;4957237;29;20066;-83
2022/12/28 00:16:28;;;;;;;11.50;5.18;;;;;;;4.80;100.00;101601.63;4957446;29;20062;-83
2022/12/28 00:18:55;;;;;;;10.50;5.25;;;;;;;4.93;100.00;101601.31;4956040;29;20031;-84
2022/12/28 00:21:20;;;;;;;9.93;5.05;;;;;;;4.86;100.00;101598.91;4957263;29;20027;-84
2022/12/28 00:23:54;;;;;;;10.48;5.38;;;;;;;4.77;100.00;101568.44;4956888;29;20431;-82
2022/12/28 00:26:20;;;;;;;12.88;5.28;;;;;;;4.75;100.00;101562.53;4956897;29;20059;-82
2022/12/28 00:28:46;;;;;;;10.00;4.88;;;;;;;4.84;100.00;101580.19;4957072;29;20043;-82
2022/12/28 00:31:11;;;;;;;9.70;4.97;;;;;;;4.82;100.00;101570.91;4939775;29;20497;-83
2022/12/28 00:33:37;;;;;;;11.65;5.05;;;;;;;4.80;100.00;101572.63;4956986;29;20032;-83
2022/12/28 00:36:03;;;;;;;10.48;5.45;;;;;;;4.78;100.00;101576.97;4956773;29;20376;-82
2022/12/28 00:38:32;;;;;;;11.02;5.22;;;;;;;4.78;100.00;101567.56;4956916;29;20023;-81
2022/12/28 00:40:58;;;;;;;10.35;5.22;;;;;;;4.77;100.00;101560.78;4956687;29;20027;-84
2022/12/28 00:43:24;;;;;;;9.55;4.82;;;;;;;4.77;100.00;101539.47;4956711;29;20038;-81
2022/12/28 00:45:49;;;;;;;12.48;5.03;;;;;;;4.92;100.00;101550.97;4956885;29;20118;-82
2022/12/28 00:48:15;;;;;;;9.30;5.38;;;;;;;4.87;100.00;101530.66;4956681;29;20035;-81
2022/12/28 00:50:42;;;;;;;13.05;5.72;;;;;;;4.76;100.00;101513.03;4956445;29;20102;-83
2022/12/28 00:53:08;;;;;;;11.38;5.90;;;;;;;4.89;100.00;101522.03;4956603;28;20030;-83
2022/12/28 00:55:34;;;;;;;8.30;5.13;;;;;;;4.98;100.00;101520.09;4939658;29;20078;-79
2022/12/28 00:58:00;;;;;;;9.80;5.97;;;;;;;5.05;100.00;101514.78;4956739;29;20411;-84
2022/12/28 01:00:26;;;;;;;9.13;5.05;;;;;;;5.03;100.00;101523.38;4956619;29;20111;-82
2022/12/28 01:02:52;;;;;;;10.00;5.22;;;;;;;5.03;100.00;101528.50;4956476;29;20070;-84
2022/12/28 01:05:17;;;;;;;14.80;6.15;;;;;;;4.95;100.00;101503.13;4956327;29;20027;-84
2022/12/28 01:07:43;;;;;;;10.25;5.05;;;;;;;5.05;100.00;101507.09;4956440;29;20031;-84
2022/12/28 01:10:09;;;;;;;10.52;5.05;;;;;;;5.16;100.00;101511.91;4956359;29;20066;-83
2022/12/28 01:12:35;;;;;;;11.15;5.38;;;;;;;5.20;100.00;101513.47;4956365;29;20031;-82
2022/12/28 01:15:00;;;;;;;10.45;5.10;;;;;;;5.14;100.00;101493.19;4956331;29;20055;-84
2022/12/28 01:17:25;;;;;;;10.20;4.90;;;;;;;5.22;100.00;101501.47;4956361;29;20110;-82
2022/12/28 01:19:51;;;;;;;9.95;5.22;;;;;;;4.75;100.00;101424.38;4956182;29;20093;-83
2022/12/28 01:22:16;;;;;;;11.40;5.35;;;;;;;5.12;100.00;101479.59;4956077;29;20031;-77
2022/12/28 01:24:41;;;;;;;12.02;5.32;;;;;;;5.25;100.00;101487.75;4955988;29;20031;-83
2022/12/28 01:27:07;;;;;;;9.50;4.82;;;;;;;5.29;100.00;101485.03;4955940;29;20027;-78
2022/12/28 01:29:32;;;;;;;11.90;5.30;;;;;;;5.19;100.00;101471.66;4938814;29;20038;-78
2022/12/28 01:31:58;;;;;;;8.32;4.97;;;;;;;5.34;100.00;101477.22;4956059;29;20058;-82
2022/12/28 01:34:23;;;;;;;10.98;6.15;;;;;;;5.36;100.00;101473.72;4955995;29;20490;-82
2022/12/28 01:36:48;;;;;;;10.52;5.75;;;;;;;5.40;100.00;101477.00;4955993;29;20027;-83
2022/12/28 01:39:14;;;;;;;11.45;5.05;;;;;;;5.40;100.00;101469.31;4955756;29;20479;-83
2022/12/28 01:41:41;;;;;;;10.35;4.75;;;;;;;5.41;100.00;101474.44;4955803;29;20031;-79
2022/12/28 01:44:06;;;;;;;9.02;5.05;;;;;;;5.44;100.00;101464.06;4955694;29;20059;-78
2022/12/28 01:46:38;;;;;;;10.48;4.97;;;;;;;5.45;100.00;101460.63;4955595;29;20042;-77
2022/12/28 01:49:11;;;;;;;9.82;5.03;;;;;;;5.46;100.00;101457.19;4955992;29;20031;-76
2022/12/28 01:52:00;;;;;;;8.13;4.85;;;;;;;5.50;100.00;101451.94;4955681;29;20038;-78
2022/12/28 01:54:28;;;;;;;9.15;5.03;;;;;;;5.41;100.00;101425.75;4955537;29;20494;-78
2022/12/28 01:56:54;;;;;;;11.13;5.18;;;;;;;5.55;100.00;101439.84;4955531;29;20031;-78
2022/12/28 01:59:25;;;;;;;7.70;4.22;;;;;;;5.55;100.00;101430.44;4955617;29;20028;-78
2022/12/28 02:01:50;;;;;;;9.13;4.68;;;;;;;5.58;100.00;101426.91;4955518;29;20035;-77
2022/12/28 02:04:16;;;;;;;10.32;4.70;;;;;;;5.57;100.00;101415.00;4955503;29;20070;-77
2022/12/28 02:06:42;;;;;;;10.20;4.40;;;;;;;5.64;100.00;101416.50;4954705;28;20110;-77
2022/12/28 02:09:18;;;;;;;7.97;4.45;;;;;;;5.56;100.00;101392.84;4955383;29;20039;-77
2022/12/28 02:11:43;;;;;;;10.00;5.10;;;;;;;5.60;100.00;101381.59;4955398;29;20372;-79
2022/12/28 02:14:12;;;;;;;8.80;4.53;;;;;;;5.61;100.00;101389.25;4955076;29;20078;-83
2022/12/28 02:16:37;;;;;;;10.73;4.55;;;;;;;5.61;100.00;101365.34;4955384;29;20031;-81
2022/12/28 02:19:05;;;;;;;8.43;4.47;;;;;;;5.62;100.00;101373.00;4955312;29;20038;-84
2022/12/28 02:21:57;;;;;;;9.88;4.35;;;;;;;5.68;100.00;101374.50;4955155;29;20035;-84
2022/12/28 02:25:07;;;;;;;11.30;5.20;;;;;;;5.63;100.00;101366.97;4955358;29;20038;-84
2022/12/28 02:27:54;;;;;;;9.55;4.38;;;;;;;5.61;100.00;101361.06;4955052;29;20035;-84
2022/12/28 02:30:19;;;;;;;9.40;4.68;;;;;;;5.64;100.00;101358.41;4954887;29;20104;-83
2022/12/28 02:33:26;;;;;;;8.80;4.50;;;;;;;5.65;100.00;101349.81;4955309;29;20130;-82
2022/12/28 02:36:03;;;;;;;10.13;5.47;;;;;;;5.58;100.00;101332.13;4955183;29;20039;-83
2022/12/28 02:38:35;;;;;;;10.68;5.03;;;;;;;5.69;100.00;101345.41;4955045;29;20456;-83
2022/12/28 02:41:08;;;;;;;9.70;5.13;;;;;;;5.58;100.00;101327.84;4954999;29;20032;-83
2022/12/28 02:43:34;;;;;;;7.78;4.90;;;;;;;5.69;100.00;101348.81;4954719;29;20031;-82
2022/12/28 02:52:16;;;;;;;12.73;5.32;;;;;;;5.54;100.00;101338.25;4954968;29;19921;-83
2022/12/28 02:57:59;;;;;;;11.23;5.78;;;;;;;5.55;100.00;101329.69;4954660;29;20087;-78
2022/12/28 03:00:28;;;;;;;10.15;5.40;;;;;;;5.48;100.00;101319.63;4954719;29;20037;-82
2022/12/28 03:03:34;;;;;;;10.90;6.63;;;;;;;5.52;100.00;101324.69;4954883;29;20368;-84
2022/12/28 03:09:13;;;;;;;12.68;6.05;;;;;;;5.47;100.00;101312.84;4859000;29;20099;-84
2022/12/28 03:11:46;;;;;;;11.40;7.07;;;;;;;5.47;100.00;101309.44;4858349;29;20076;-84
2022/12/28 03:14:17;;;;;;;11.20;6.90;;;;;;;5.46;100.00;101302.66;4858552;29;20360;-84
2022/12/28 03:31:05;;;;;;;12.65;6.82;;;;;;;5.53;100.00;101281.06;4861777;29;20501;-83
2022/12/28 03:33:51;;;;;;;11.05;6.65;;;;;;;5.57;100.00;101279.22;4862025;29;20033;-83
2022/12/28 03:36:29;;;;;;;12.18;7.13;;;;;;;5.46;100.00;101262.50;4861608;29;20549;-82
2022/12/28 03:39:06;;;;;;;14.13;7.50;;;;;;;5.62;100.00;101285.03;4861436;29;20090;-83
2022/12/28 03:41:46;;;;;;;12.25;7.53;;;;;;;5.62;100.00;101275.63;4861607;29;20030;-82
2022/12/28 03:44:20;;;;;;;10.73;7.20;;;;;;;5.66;100.00;101279.75;4956365;29;20078;-84
2022/12/28 03:46:54;;;;;;;12.77;7.38;;;;;;;5.58;100.00;101255.28;4957831;29;20058;-80
2022/12/28 03:49:22;;;;;;;13.82;8.20;;;;;;;5.58;100.00;101243.31;4957956;29;20027;-83
2022/12/28 03:51:48;;;;;;;11.57;7.35;;;;;;;5.76;100.00;101260.59;4958015;29;20023;-82
2022/12/28 03:54:15;;;;;;;11.40;6.88;;;;;;;5.78;100.00;101262.25;4957800;29;20526;-83
2022/12/28 03:56:46;;;;;;;9.55;6.78;;;;;;;5.72;100.00;101242.84;4957684;29;20029;-84
2022/12/28 03:59:11;;;;;;;11.35;7.00;;;;;;;5.79;100.00;101249.38;4957718;29;20019;-83
2022/12/28 04:01:36;;;;;;;11.38;7.13;;;;;;;5.85;100.00;101241.47;4957736;29;20036;-82
2022/12/28 04:04:02;;;;;;;14.73;7.70;;;;;;;5.96;100.00;101248.81;4957534;29;20038;-84
2022/12/28 04:06:27;;;;;;;12.13;7.65;;;;;;;5.83;100.00;101225.34;4957255;29;20507;-77
2022/12/28 04:08:52;;;;;;;11.65;7.40;;;;;;;5.94;100.00;101243.75;4957580;29;20472;-76
2022/12/28 04:11:18;;;;;;;12.98;7.20;;;;;;;6.07;100.00;101248.41;4957446;29;20039;-83
2022/12/28 04:13:43;;;;;;;12.30;6.80;;;;;;;5.82;100.00;101202.31;4957358;29;20030;-82
2022/12/28 04:16:10;;;;;;;12.23;7.20;;;;;;;5.94;100.00;101209.59;4957337;29;20031;-83
2022/12/28 04:18:36;;;;;;;11.07;6.53;;;;;;;6.10;100.00;101244.00;4957373;29;20031;-84
2022/12/28 04:21:02;;;;;;;12.43;6.97;;;;;;;6.10;100.00;101236.31;4957106;29;20078;-76
2022/12/28 04:23:27;;;;;;;13.20;6.80;;;;;;;6.14;100.00;101237.88;4940143;29;20038;-83
2022/12/28 04:26:04;;;;;;;10.18;6.57;;;;;;;6.21;100.00;101251.28;4957354;29;20109;-77
2022/12/28 04:28:30;;;;;;;10.90;6.55;;;;;;;6.23;100.00;101241.81;4956823;28;20027;-77
2022/12/28 04:30:57;;;;;;;12.98;6.80;;;;;;;6.25;100.00;101252.84;4956895;29;20030;-79
2022/12/28 04:33:23;;;;;;;11.20;6.63;;;;;;;6.25;100.00;101247.72;4957090;29;20035;-84
2022/12/28 04:35:49;;;;;;;12.60;6.63;;;;;;;6.24;100.00;101240.91;4956938;29;20031;-83
2022/12/28 04:38:14;;;;;;;11.38;6.85;;;;;;;6.28;100.00;101242.44;4957099;29;20046;-78
2022/12/28 04:40:40;;;;;;;11.07;6.32;;;;;;;6.32;100.00;101247.44;4957088;29;20078;-77
2022/12/28 04:43:05;;;;;;;10.25;6.25;;;;;;;6.14;100.00;101208.81;4939575;29;20473;-82
2022/12/28 04:45:30;;;;;;;11.60;6.20;;;;;;;6.25;100.00;101219.50;4956751;29;20031;-78
2022/12/28 04:47:57;;;;;;;9.52;6.50;;;;;;;6.41;100.00;101238.53;4956967;29;20053;-78
2022/12/28 04:50:23;;;;;;;10.18;6.00;;;;;;;6.45;100.00;101244.38;4956650;29;20360;-83
2022/12/28 04:52:48;;;;;;;12.35;5.93;;;;;;;6.37;100.00;101239.53;4939555;29;20058;-80
2022/12/28 04:55:14;;;;;;;10.05;5.85;;;;;;;6.49;100.00;101236.50;4956721;29;20114;-81
2022/12/28 04:57:42;;;;;;;10.90;5.75;;;;;;;6.42;100.00;101216.28;4956648;29;20063;-83
2022/12/28 05:00:08;;;;;;;10.18;6.20;;;;;;;6.56;100.00;101230.22;4956648;29;20091;-82
2022/12/28 05:02:33;;;;;;;9.77;6.57;;;;;;;6.58;100.00;101222.47;4956239;29;20031;-81
2022/12/28 05:04:59;;;;;;;9.93;5.47;;;;;;;6.58;100.00;101218.16;4956557;29;20058;-82
2022/12/28 05:07:24;;;;;;;9.85;6.43;;;;;;;6.60;100.00;101218.13;4938546;29;20053;-81
2022/12/28 05:09:49;;;;;;;11.30;6.00;;;;;;;6.57;100.00;101216.50;4956645;29;20059;-81
2022/12/28 05:12:15;;;;;;;9.70;6.00;;;;;;;6.54;100.00;101215.78;4956477;29;20074;-82
2022/12/28 05:14:41;;;;;;;9.70;6.70;;;;;;;6.53;100.00;101212.41;4956346;29;20541;-84
2022/12/28 05:17:06;;;;;;;10.18;6.40;;;;;;;6.52;100.00;101217.59;4956086;29;20031;-82
2022/12/28 05:19:31;;;;;;;11.48;6.25;;;;;;;6.49;100.00;101217.69;4956356;29;20027;-84
2022/12/28 05:21:57;;;;;;;11.32;6.60;;;;;;;6.44;100.00;101211.94;4938667;29;20079;-81
2022/12/28 05:24:22;;;;;;;9.52;6.13;;;;;;;6.49;100.00;101221.13;4956198;29;20081;-83
2022/12/28 05:26:47;;;;;;;11.30;6.40;;;;;;;6.49;100.00;101226.25;4956414;29;20475;-83
2022/12/28 05:29:13;;;;;;;9.40;6.57;;;;;;;6.46;100.00;101210.13;4956129;29;20392;-83
2022/12/28 05:31:38;;;;;;;12.88;6.97;;;;;;;6.50;100.00;101227.09;4955766;29;20095;-84
2022/12/28 05:34:03;;;;;;;9.27;6.28;;;;;;;6.48;100.00;101226.28;4955915;29;20114;-79
2022/12/28 05:36:29;;;;;;;12.20;6.72;;;;;;;6.48;100.00;101223.72;4955917;29;20027;-79
2022/12/28 05:38:55;;;;;;;9.82;6.75;;;;;;;6.23;100.00;101185.41;4955794;29;20051;-79
2022/12/28 05:41:26;;;;;;;10.90;5.85;;;;;;;6.42;100.00;101214.56;4955235;28;20019;-78
2022/12/28 05:43:52;;;;;;;12.98;7.15;;;;;;;6.46;100.00;101220.38;4938521;29;20027;-79
2022/12/28 05:46:23;;;;;;;13.43;7.63;;;;;;;6.45;100.00;101214.44;4955556;29;20027;-78
2022/12/28 05:48:49;;;;;;;10.85;7.15;;;;;;;6.46;100.00;101210.13;4955770;29;20037;-78
2022/12/28 05:51:17;;;;;;;11.13;6.70;;;;;;;6.44;100.00;101201.66;4955641;29;20039;-78
2022/12/28 05:53:43;;;;;;;12.88;7.03;;;;;;;6.48;100.00;101200.63;4955544;29;20045;-77
2022/12/28 05:56:13;;;;;;;11.15;7.10;;;;;;;6.47;100.00;101204.94;4938205;29;20126;-79
2022/12/28 05:58:38;;;;;;;13.77;7.80;;;;;;;6.49;100.00;101200.59;4938254;29;20449;-78
2022/12/28 06:01:08;;;;;;;14.15;7.55;;;;;;;6.49;100.00;101203.16;4938034;29;20047;-81
2022/12/28 06:03:34;;;;;;;12.02;7.43;;;;;;;6.43;100.00;101172.63;4955297;29;20042;-79
2022/12/28 06:06:08;;;;;;;12.55;7.40;;;;;;;6.53;100.00;101193.59;4937966;29;20482;-77
2022/12/28 06:08:34;;;;;;;11.55;7.40;;;;;;;6.38;100.00;101158.28;4955315;29;20051;-78
2022/12/28 06:11:02;;;;;;;13.32;6.97;;;;;;;6.53;100.00;101173.91;4955388;29;20135;-79
2022/12/28 06:13:28;;;;;;;13.50;6.80;;;;;;;6.47;100.00;101163.88;4955219;29;20019;-78
2022/12/28 06:15:54;;;;;;;10.23;6.53;;;;;;;6.42;100.00;101147.84;4955417;29;20038;-78
2022/12/28 06:18:19;;;;;;;12.40;5.53;;;;;;;6.48;100.00;101152.72;4955225;29;20031;-77
2022/12/28 06:20:45;;;;;;;11.80;6.07;;;;;;;6.42;100.00;101144.47;4955136;29;20114;-78
2022/12/28 06:23:10;;;;;;;12.70;6.50;;;;;;;6.58;100.00;101164.28;4955230;29;20031;-79
2022/12/28 06:25:36;;;;;;;10.43;6.10;;;;;;;6.60;100.00;101165.06;4955317;29;20027;-80
2022/12/28 06:28:02;;;;;;;9.80;6.22;;;;;;;6.49;100.00;101141.59;4955026;29;20030;-77
2022/12/28 06:30:27;;;;;;;10.80;5.63;;;;;;;6.35;100.00;101122.50;4955070;29;20031;-76
2022/12/28 06:32:55;;;;;;;10.48;6.00;;;;;;;6.51;100.00;101144.91;4955060;29;20027;-77
2022/12/28 06:35:20;;;;;;;8.73;5.68;;;;;;;6.65;100.00;101156.34;4955019;29;20106;-81
2022/12/28 06:37:46;;;;;;;11.43;5.82;;;;;;;6.52;100.00;101140.63;4954902;29;20129;-75
2022/12/28 06:40:12;;;;;;;11.80;6.50;;;;;;;6.67;100.00;101159.66;4955120;29;20502;-79
2022/12/28 06:42:37;;;;;;;10.57;5.35;;;;;;;6.54;100.00;101139.66;4954788;29;20046;-81
2022/12/28 06:45:03;;;;;;;10.63;5.80;;;;;;;6.64;100.00;101147.81;4955022;29;20038;-82
2022/12/28 06:47:28;;;;;;;8.77;5.75;;;;;;;6.68;100.00;101153.63;4954967;29;20031;-79
2022/12/28 06:49:54;;;;;;;10.02;5.93;;;;;;;6.69;100.00;101152.75;4954948;29;20036;-79
2022/12/28 06:52:20;;;;;;;10.85;6.15;;;;;;;6.69;100.00;101152.75;4957342;28;20034;-82
2022/12/28 06:54:45;;;;;;;10.82;6.25;;;;;;;6.49;100.00;101123.63;4958865;29;20019;-80
2022/12/28 06:57:10;;;;;;;10.18;6.25;;;;;;;6.54;100.00;101138.81;4958872;29;20486;-80
2022/12/28 06:59:36;;;;;;;9.43;6.47;;;;;;;6.72;100.00;101150.06;4958945;29;20034;-81
2022/12/28 07:02:01;;;;;;;11.55;6.82;;;;;;;6.74;100.00;101153.41;4958831;29;20027;-78
2022/12/28 07:04:26;;;;;;;11.75;6.30;;;;;;;6.75;100.00;101143.06;4958569;29;20031;-83
2022/12/28 07:06:51;;;;;;;10.30;5.80;;;;;;;6.76;100.00;101149.03;4958447;29;20471;-82
2022/12/28 07:09:17;;;;;;;8.77;6.53;;;;;;;6.77;100.00;101148.13;4958427;29;20028;-82
2022/12/28 07:11:43;;;;;;;15.77;7.07;;;;;;;6.77;100.00;101145.56;4958635;29;20098;-82
2022/12/28 07:14:09;;;;;;;9.93;6.90;;;;;;;6.78;100.00;101153.19;4958554;29;20082;-83
2022/12/28 07:16:34;;;;;;;11.55;7.03;;;;;;;6.64;100.00;101118.75;4958660;29;20031;-82
2022/12/28 07:19:00;;;;;;;10.30;7.07;;;;;;;6.80;100.00;101141.16;4958177;29;20060;-82
2022/12/28 07:21:29;;;;;;;11.90;7.05;;;;;;;6.69;100.00;101139.94;4941140;29;20033;-83
2022/12/28 07:23:55;;;;;;;12.93;7.05;;;;;;;6.82;100.00;101141.91;4957973;29;20035;-84
2022/12/28 07:26:24;;;;;;;12.20;6.57;;;;;;;6.84;100.00;101144.41;4958410;29;20432;-79
2022/12/28 07:28:52;;;;;;;11.50;7.15;;;;;;;6.85;100.00;101144.34;4958228;29;20031;-78
2022/12/28 07:31:20;;;;;;;13.70;7.88;;;;;;;6.86;100.00;101140.88;4958225;29;20460;-79
2022/12/28 07:33:46;;;;;;;10.68;6.90;;;;;;;6.85;100.00;101143.50;4958056;29;20023;-78
2022/12/28 07:36:15;;;;;;;13.13;6.13;;;;;;;6.90;100.00;101149.28;4958162;29;20444;-83
2022/12/28 07:38:40;;;;;;;9.50;6.10;;;;;;;6.90;100.00;101150.13;4958180;29;20395;-84
2022/12/28 07:41:09;;;;;;;10.90;5.80;;;;;;;6.95;100.00;101146.50;4958078;29;20023;-84
2022/12/28 07:43:34;;;;;;;12.40;6.57;;;;;;;6.96;100.00;101149.00;4958277;29;20027;-83
2022/12/28 07:46:13;;;;;;;12.10;6.47;;;;;;;6.88;100.00;101133.09;4958116;29;20467;-85
2022/12/28 07:48:40;;;;;;;9.98;5.57;;;;;;;6.86;100.00;101127.19;4957582;29;20026;-84
2022/12/28 07:51:07;;;;;;;10.30;5.78;;;;;;;7.04;100.00;101149.53;4957666;29;20491;-83
2022/12/28 07:53:33;;;;;;;9.85;5.47;;;;;;;7.07;100.00;101149.38;4957814;29;20063;-82
2022/12/28 07:55:59;;;;;;;10.23;5.35;;;;;;;7.07;100.00;101144.25;4942366;29;20485;-81
2022/12/28 07:58:24;;;;;;;9.25;5.25;;;;;;;7.09;100.00;101142.47;4939033;29;20047;-81
2022/12/28 08:00:50;;;;;;;7.88;4.82;;;;;;;7.16;100.00;101151.56;4921652;29;20040;-82
2022/12/28 08:03:16;;;;;;;7.25;5.13;;;;;;;7.18;100.00;101156.66;4937912;29;20027;-80
2022/12/28 08:05:42;;;;;;;10.23;4.95;;;;;;;7.18;100.00;101165.19;4938008;29;20031;-82
2022/12/28 08:08:07;;;;;;;7.80;4.68;;;;;;;6.86;100.00;101102.38;4938256;29;20396;-80
2022/12/28 08:10:33;;;;;;;8.52;5.47;;;;;;;7.11;100.00;101143.22;4938362;29;20468;-82
2022/12/28 08:12:59;;;;;;;8.68;5.28;;;;;;;7.02;100.00;101122.25;4938669;29;20480;-82
2022/12/28 08:15:24;;;;;;;8.15;5.65;;;;;;;7.23;100.00;101133.31;4938371;29;20039;-81
2022/12/28 08:17:50;;;;;;;8.63;5.30;;;;;;;7.18;100.00;101144.63;4938352;29;20032;-80
2022/12/28 08:20:16;;;;;;;11.55;5.90;;;;;;;7.27;100.00;101139.97;4937824;29;20522;-79
2022/12/28 08:22:41;;;;;;;10.63;6.15;;;;;;;7.19;100.00;101136.03;4937924;29;20019;-82
2022/12/28 08:25:07;;;;;;;8.40;5.15;;;;;;;7.23;100.00;101144.41;4938192;29;20486;-84
2022/12/28 08:27:32;;;;;;;10.00;5.15;;;;;;;7.22;100.00;101139.34;4938206;29;20076;-84
2022/12/28 08:29:57;;;;;;;9.32;6.05;;;;;;;7.15;100.00;101136.22;4938292;29;20028;-87
2022/12/28 08:32:23;;;;;;;11.95;6.18;;;;;;;6.93;100.00;101084.97;4937990;29;20024;-86
2022/12/28 08:34:48;;;;;;;12.40;6.18;;;;;;;7.24;100.00;101134.97;4937757;29;20043;-85
2022/12/28 08:37:14;;;;;;;10.48;6.35;;;;;;;7.28;100.00;101139.09;4937867;29;20035;-82
2022/12/28 08:39:39;;;;;;;10.13;5.93;;;;;;;7.02;100.00;101087.13;4937966;29;20485;-84
2022/12/28 08:42:04;;;;;;;9.43;5.93;;;;;;;7.33;100.00;101130.28;4937895;29;20049;-85
2022/12/28 08:44:30;;;;;;;11.52;5.80;;;;;;;7.37;100.00;101133.53;4937586;29;20023;-85
2022/12/28 08:46:56;;;;;;;10.57;5.63;;;;;;;7.42;100.00;101139.31;4954421;29;20091;-85
2022/12/28 08:49:22;;;;;;;12.13;5.82;;;;;;;7.44;100.00;101138.31;4956843;29;20471;-79
2022/12/28 08:51:47;;;;;;;10.65;5.80;;;;;;;7.44;100.00;101134.94;4939598;29;20113;-81
2022/12/28 08:54:13;;;;;;;13.75;6.13;;;;;;;7.44;100.00;101137.50;4956654;29;20391;-83
2022/12/28 08:56:41;;;;;;;12.90;6.47;;;;;;;7.51;100.00;101141.47;4956869;29;20098;-82
2022/12/28 08:59:07;;;;;;;12.30;5.50;;;;;;;7.52;100.00;101134.59;4957147;29;20432;-85
2022/12/28 09:01:35;;;;;;;10.02;5.47;;;;;;;7.54;100.00;101123.31;4956558;29;20078;-81
2022/12/28 09:04:01;;;;;;;11.25;5.88;;;;;;;7.54;100.00;101128.47;4956528;29;20043;-80
2022/12/28 09:06:31;;;;;;;10.27;5.55;;;;;;;7.56;100.00;101131.78;4956349;29;20045;-75
2022/12/28 09:08:57;;;;;;;10.05;5.60;;;;;;;7.53;100.00;101123.41;4956558;29;20027;-75
2022/12/28 09:11:23;;;;;;;12.77;5.65;;;;;;;7.56;100.00;101129.22;4956503;29;20484;-85
2022/12/28 09:13:48;;;;;;;11.23;5.32;;;;;;;7.57;100.00;101130.06;4939086;29;20095;-75
2022/12/28 09:16:17;;;;;;;12.93;5.95;;;;;;;7.44;100.00;101120.34;4955228;28;20035;-74
2022/12/28 09:18:44;;;;;;;10.15;5.22;;;;;;;7.54;100.00;101132.78;4956339;29;20030;-76
2022/12/28 09:21:16;;;;;;;11.95;5.50;;;;;;;7.53;100.00;101136.25;4956157;29;20070;-78
2022/12/28 09:23:42;;;;;;;11.75;5.50;;;;;;;7.48;100.00;101145.00;4956049;29;20059;-83
2022/12/28 09:26:11;;;;;;;9.23;5.35;;;;;;;7.29;100.00;101113.34;4938979;29;20023;-79
2022/12/28 09:28:36;;;;;;;15.00;6.07;;;;;;;7.41;100.00;101142.78;4956219;29;20035;-77
2022/12/28 09:31:06;;;;;;;12.73;6.30;;;;;;;7.28;100.00;101118.56;4954267;29;20057;-77
2022/12/28 09:36:17;;;;;;;10.27;5.60;;;;;;;7.28;100.00;101119.38;4955988;29;20046;-81
2022/12/28 09:38:44;;;;;;;10.77;6.72;;;;;;;7.40;100.00;101133.41;4955881;29;20019;-79
2022/12/28 09:41:25;;;;;;;11.30;6.30;;;;;;;7.39;100.00;101140.28;4954333;29;20135;-79
2022/12/28 09:43:55;;;;;;;10.50;5.78;;;;;;;7.13;100.00;101092.63;4955823;29;20031;-79
2022/12/28 09:46:22;;;;;;;9.93;5.63;;;;;;;7.39;100.00;101129.19;4955872;29;20051;-80
2022/12/28 09:48:56;;;;;;;9.38;5.40;;;;;;;7.42;100.00;101135.00;4955726;29;20023;-79
2022/12/28 09:51:31;;;;;;;9.13;5.45;;;;;;;7.49;100.00;101135.56;4955554;29;20468;-80
2022/12/28 09:53:56;;;;;;;12.77;5.55;;;;;;;7.54;100.00;101136.19;4955701;29;20031;-80
2022/12/28 09:56:30;;;;;;;10.32;4.97;;;;;;;7.40;100.00;101103.41;4955823;29;20023;-76
2022/12/28 09:58:55;;;;;;;9.05;5.00;;;;;;;7.53;100.00;101119.09;4955461;29;20458;-84
2022/12/28 10:01:22;;;;;;;8.32;4.55;;;;;;;7.64;100.00;101119.44;4955436;29;20088;-78
2022/12/28 10:03:47;;;;;;;7.93;4.00;;;;;;;7.69;100.00;101121.81;4955443;29;20066;-77
2022/12/28 10:06:16;;;;;;;8.35;4.22;;;;;;;7.74;100.00;101133.53;4955081;29;20063;-76
2022/12/28 10:08:47;;;;;;;9.88;4.32;;;;;;;7.62;100.00;101107.56;4955525;29;20027;-78
2022/12/28 10:11:23;;;;;;;8.05;4.32;;;;;;;7.75;100.00;101126.66;4955277;29;20038;-78
2022/12/28 10:13:56;;;;;;;7.63;3.83;;;;;;;7.59;100.00;101100.00;4955501;29;20490;-79
2022/12/28 10:16:24;;;;;;;7.65;4.20;;;;;;;7.65;100.00;101109.97;4955607;29;20097;-79
2022/12/28 10:18:49;;;;;;;7.93;3.92;;;;;;;7.74;100.00;101122.41;4955284;29;20047;-78
2022/12/28 10:21:18;;;;;;;7.85;4.15;;;;;;;7.63;100.00;101092.06;4955144;29;20479;-78
2022/12/28 10:23:46;;;;;;;7.50;3.50;;;;;;;7.67;100.00;101101.31;4955133;29;20046;-79
2022/12/28 10:26:17;;;;;;;7.85;3.70;;;;;;;7.76;100.00;101113.72;4953123;28;20115;-78
2022/12/28 10:28:49;;;;;;;4.50;3.33;;;;;;;7.75;100.00;101106.06;4955116;29;20546;-79
2022/12/28 10:31:30;;;;;;;4.63;2.92;;;;;;;7.73;100.00;101107.91;4955167;29;20420;-79
2022/12/28 10:33:55;;;;;;;5.70;3.40;;;;;;;7.71;100.00;101107.97;4955179;29;20027;-78
2022/12/28 10:36:20;;;;;;;5.97;3.80;;;;;;;7.69;100.00;101104.66;4950705;29;20705;-78
2022/12/28 10:38:53;;;;;;;5.20;3.15;;;;;;;7.69;100.00;101111.53;4936141;29;20536;-79
2022/12/28 10:41:19;;;;;;;6.53;4.03;;;;;;;7.63;100.00;101092.06;4935991;29;20042;-79
2022/12/28 10:43:49;;;;;;;6.47;3.80;;;;;;;7.65;100.00;101115.13;4935663;29;20031;-80
2022/12/28 10:46:22;;;;;;;6.63;3.70;;;;;;;7.60;100.00;101097.34;4935830;29;20496;-80
2022/12/28 10:48:54;;;;;;;5.78;3.70;;;;;;;7.66;100.00;101106.50;4935834;29;20032;-80
2022/12/28 10:51:23;;;;;;;7.70;3.90;;;;;;;7.54;100.00;101084.78;4935974;29;20024;-78
2022/12/28 10:56:47;;;;;;;5.68;3.70;;;;;;;6.93;100.00;100974.56;5421612;23;20063;-79
2022/12/28 10:59:23;;;;;;;6.07;3.75;;;;;;;7.65;100.00;101097.97;4935167;29;20031;-79
2022/12/28 11:01:48;;;;;;;6.38;4.20;;;;;;;7.55;100.00;101071.03;4935372;29;20494;-79
2022/12/28 11:04:19;;;;;;;6.88;4.13;;;;;;;7.63;100.00;101089.50;4934089;29;20035;-78
2022/12/28 11:06:59;;;;;;;7.78;4.25;;;;;;;7.44;100.00;101050.97;4936179;29;20375;-78
2022/12/28 11:09:34;;;;;;;5.75;4.05;;;;;;;7.67;100.00;101080.75;4935099;29;20031;-79
2022/12/28 11:12:23;;;;;;;9.60;4.45;;;;;;;7.66;100.00;101086.78;4916636;29;20055;-82
2022/12/28 11:14:48;;;;;;;6.50;4.15;;;;;;;7.53;100.00;101047.13;4935377;29;20111;-82
2022/12/28 11:17:19;;;;;;;7.35;4.50;;;;;;;7.71;100.00;101084.00;4935227;29;20112;-81
2022/12/28 11:19:46;;;;;;;7.78;5.55;;;;;;;7.61;100.00;101052.75;4934922;29;20088;-81
2022/12/28 11:22:16;;;;;;;7.80;5.20;;;;;;;7.72;100.00;101065.94;4935221;29;20028;-81
2022/12/28 11:24:42;;;;;;;8.38;4.57;;;;;;;7.54;100.00;101030.81;4935281;29;20027;-81
2022/12/28 11:27:14;;;;;;;7.45;4.03;;;;;;;7.73;100.00;101059.88;4934901;29;20036;-82
2022/12/28 11:29:44;;;;;;;8.07;4.05;;;;;;;7.78;100.00;101051.97;4917894;29;20034;-81
2022/12/28 11:32:38;;;;;;;8.30;4.78;;;;;;;7.82;100.00;101057.78;4935142;29;20479;-81
2022/12/28 11:35:04;;;;;;;9.00;3.88;;;;;;;7.64;100.00;101019.19;4932699;29;20566;-81
2022/12/28 11:37:29;;;;;;;7.57;4.00;;;;;;;7.75;100.00;101027.22;4935164;29;20143;-82
2022/12/28 11:39:55;;;;;;;7.55;4.18;;;;;;;7.85;100.00;101026.78;4937306;29;20060;-78
2022/12/28 11:42:35;;;;;;;6.50;4.13;;;;;;;7.90;100.00;101042.81;4946800;29;20034;-79
2022/12/28 11:45:10;;;;;;;6.65;3.70;;;;;;;7.92;100.00;101036.69;4957145;29;20457;-79
2022/12/28 11:47:36;;;;;;;7.82;4.00;;;;;;;7.93;100.00;101033.22;4957569;29;20019;-77
2022/12/28 11:50:32;;;;;;;8.32;3.60;;;;;;;7.92;100.00;101010.97;4957208;29;20154;-79
2022/12/28 11:52:59;;;;;;;9.77;3.75;;;;;;;7.76;100.00;101000.59;4957145;29;20545;-81
2022/12/28 11:55:25;;;;;;;7.32;3.67;;;;;;;7.94;100.00;101024.59;4956751;29;20031;-79
2022/12/28 11:57:50;;;;;;;8.45;4.07;;;;;;;7.84;100.00;101000.22;4952442;29;20373;-80